Time;durP1;ratioP1;P1;durP2;ratioP2;P2;SDS_P1;SDS_P2;PMS_P1;PMS_P2;Temp;Humidity;BMP_temperature;BMP_pressure;BME280_temperature;BME280_humidity;BME280_pressure;Samples;Min_cycle;Max_cycle;Signal;HPM_P1;HPM_P2
2022/04/28 00:01:57;;;;;;;19.73;7.00;;;;;;;6.46;73.95;102878.53;4993046;28;20022;-69
2022/04/28 00:04:22;;;;;;;16.35;7.47;;;;;;;6.42;73.54;102872.41;4993743;28;20026;-69
2022/04/28 00:06:48;;;;;;;15.60;6.43;;;;;;;6.41;73.97;102875.84;4990008;28;20037;-70
2022/04/28 00:09:13;;;;;;;16.15;6.95;;;;;;;6.37;74.44;102876.56;4992348;28;20771;-70
2022/04/28 00:11:39;;;;;;;18.65;7.45;;;;;;;6.33;74.92;102873.06;4989403;28;20034;-71
2022/04/28 00:14:07;;;;;;;14.75;6.93;;;;;;;6.33;75.05;102885.94;4994938;28;20029;-70
2022/04/28 00:16:34;;;;;;;20.55;7.05;;;;;;;6.29;74.15;102893.53;4986578;28;20030;-70
2022/04/28 00:19:00;;;;;;;17.67;7.00;;;;;;;6.22;74.46;102886.47;4989360;28;20030;-69
2022/04/28 00:21:25;;;;;;;18.33;7.03;;;;;;;6.19;74.29;102887.28;4994213;28;20045;-70
2022/04/28 00:23:50;;;;;;;20.15;7.70;;;;;;;6.18;74.97;102888.09;4990201;28;20093;-70
2022/04/28 00:26:16;;;;;;;20.40;7.60;;;;;;;6.14;75.49;102883.66;4988992;28;20177;-70
2022/04/28 00:28:41;;;;;;;17.50;7.13;;;;;;;6.14;75.45;102882.84;5003207;28;20284;-70
2022/04/28 00:31:06;;;;;;;19.10;7.73;;;;;;;6.13;75.52;102888.81;4991101;28;20289;-70
2022/04/28 00:33:32;;;;;;;18.88;7.28;;;;;;;6.08;75.17;102878.38;4997101;28;20289;-70
2022/04/28 00:35:57;;;;;;;16.63;7.47;;;;;;;6.07;74.74;102886.06;4999692;28;20037;-70
2022/04/28 00:38:22;;;;;;;18.70;7.43;;;;;;;6.07;76.07;102878.34;5003492;28;20806;-70
2022/04/28 00:40:48;;;;;;;15.95;7.28;;;;;;;6.05;76.33;102880.00;4985873;28;20042;-70
2022/04/28 00:43:19;;;;;;;20.48;7.25;;;;;;;6.01;75.52;102875.56;4996832;28;20034;-69
2022/04/28 00:45:48;;;;;;;17.92;7.18;;;;;;;5.99;75.71;102879.81;4993965;28;20049;-69
2022/04/28 00:51:01;;;;;;;17.13;7.28;;;;;;;5.88;75.96;102870.09;5002488;28;20079;-69
2022/04/28 00:53:29;;;;;;;19.63;7.07;;;;;;;5.83;75.70;102878.47;5008266;28;20060;-69
2022/04/28 00:55:56;;;;;;;16.58;7.88;;;;;;;5.78;76.13;102878.38;4990837;28;20196;-69
2022/04/28 00:58:22;;;;;;;17.85;7.78;;;;;;;5.73;76.37;102882.47;4990337;28;20038;-70
2022/04/28 01:00:47;;;;;;;17.50;7.20;;;;;;;5.72;77.23;102885.03;4986654;28;20053;-69
2022/04/28 01:03:13;;;;;;;21.55;7.93;;;;;;;5.70;77.14;102879.84;5000760;28;20437;-70
2022/04/28 01:05:39;;;;;;;18.38;7.95;;;;;;;5.71;77.00;102880.72;5006813;28;20257;-70
2022/04/28 01:08:05;;;;;;;19.40;7.45;;;;;;;5.70;77.74;102878.97;4995476;28;20032;-69
2022/04/28 01:10:30;;;;;;;19.17;7.80;;;;;;;5.68;77.00;102881.47;5003888;28;20034;-69
2022/04/28 01:12:56;;;;;;;20.13;7.57;;;;;;;5.66;76.83;102878.03;4989691;28;20480;-70
2022/04/28 01:15:21;;;;;;;20.92;7.85;;;;;;;5.65;77.29;102884.00;4993385;28;20492;-69
2022/04/28 01:17:47;;;;;;;24.27;7.93;;;;;;;5.63;77.36;102874.47;4994491;28;20030;-69
2022/04/28 01:20:12;;;;;;;21.40;7.95;;;;;;;5.63;77.91;102877.91;5002544;28;20105;-69
2022/04/28 01:22:38;;;;;;;23.15;8.38;;;;;;;5.62;78.27;102883.88;4989823;28;20038;-70
2022/04/28 01:25:08;;;;;;;19.17;8.18;;;;;;;5.61;77.78;102883.81;4997013;28;20072;-70
2022/04/28 01:27:38;;;;;;;16.10;7.63;;;;;;;5.58;77.49;102879.50;4993688;28;20030;-70
2022/04/28 01:30:14;;;;;;;22.48;8.60;;;;;;;5.53;77.21;102881.03;4990021;28;20406;-69
2022/04/28 01:32:39;;;;;;;20.50;7.68;;;;;;;5.49;77.47;102884.34;4989984;28;20399;-69
2022/04/28 01:35:05;;;;;;;21.30;8.23;;;;;;;5.47;78.18;102889.44;5000839;28;20461;-70
2022/04/28 01:37:31;;;;;;;20.60;8.10;;;;;;;5.46;78.07;102886.81;4993511;28;20040;-70
2022/04/28 01:39:56;;;;;;;21.67;8.27;;;;;;;5.43;78.52;102882.47;5002332;28;20110;-69
2022/04/28 01:42:23;;;;;;;18.40;8.10;;;;;;;5.43;78.22;102887.63;4989889;28;20061;-69
2022/04/28 01:44:49;;;;;;;22.80;8.65;;;;;;;5.43;78.70;102884.16;4988876;28;20274;-70
2022/04/28 01:47:14;;;;;;;24.55;8.07;;;;;;;5.40;79.04;102884.06;4991126;28;20041;-69
2022/04/28 01:49:39;;;;;;;24.67;9.00;;;;;;;5.39;78.45;102887.50;4997031;28;20038;-70
2022/04/28 01:54:58;;;;;;;28.17;8.70;;;;;;;5.31;78.32;102884.69;4990055;28;20135;-69
2022/04/28 01:57:27;;;;;;;18.13;8.43;;;;;;;5.27;79.23;102877.69;4987379;28;20049;-70
2022/04/28 01:59:53;;;;;;;21.88;7.60;;;;;;;5.21;78.50;102877.50;4998265;28;20029;-70
2022/04/28 02:02:19;;;;;;;22.08;8.30;;;;;;;5.23;79.28;102880.13;4992528;28;20022;-69
2022/04/28 02:04:45;;;;;;;16.77;8.57;;;;;;;5.22;79.22;102879.25;4991947;28;20027;-70
2022/04/28 02:07:13;;;;;;;19.75;8.10;;;;;;;5.19;79.20;102880.88;5005319;28;20098;-69
2022/04/28 02:09:39;;;;;;;19.33;8.18;;;;;;;5.14;79.46;102883.28;5006196;28;20495;-69
2022/04/28 02:12:04;;;;;;;20.48;8.35;;;;;;;5.13;79.55;102882.41;4994777;28;20031;-69
2022/04/28 02:14:30;;;;;;;17.02;7.78;;;;;;;5.12;79.05;102882.34;4986453;28;20038;-69
2022/04/28 02:16:55;;;;;;;22.60;8.48;;;;;;;5.07;79.15;102886.47;5003081;28;20257;-69
2022/04/28 02:19:21;;;;;;;17.03;7.97;;;;;;;5.03;79.59;102887.22;4990724;28;20026;-70
2022/04/28 02:21:46;;;;;;;21.23;8.43;;;;;;;5.00;79.81;102884.53;4993777;28;20790;-70
2022/04/28 02:24:12;;;;;;;18.87;8.37;;;;;;;4.97;79.42;102893.03;4995705;28;20053;-69
2022/04/28 02:26:37;;;;;;;21.85;8.20;;;;;;;4.95;79.57;102883.53;5000156;28;20551;-69
2022/04/28 02:29:02;;;;;;;23.58;8.52;;;;;;;4.95;80.16;102881.81;4992151;28;20456;-69
2022/04/28 02:31:28;;;;;;;19.92;8.30;;;;;;;4.93;79.78;102890.28;4994731;28;21561;-69
2022/04/28 02:33:53;;;;;;;19.25;7.65;;;;;;;4.89;79.60;102884.19;4996787;28;20181;-70
2022/04/28 02:36:19;;;;;;;23.97;8.73;;;;;;;4.88;80.31;102879.00;4988567;28;20416;-69
2022/04/28 02:38:45;;;;;;;26.42;9.10;;;;;;;4.84;80.80;102880.63;5000535;28;20289;-69
2022/04/28 02:41:10;;;;;;;21.55;8.88;;;;;;;4.86;80.47;102885.78;4984065;28;20031;-70
2022/04/28 02:43:35;;;;;;;20.20;9.23;;;;;;;4.84;80.22;102890.00;4997991;28;20035;-69
2022/04/28 02:46:01;;;;;;;22.08;8.20;;;;;;;4.83;80.86;102890.84;4993489;28;20088;-69
2022/04/28 02:48:26;;;;;;;22.33;8.32;;;;;;;4.78;80.42;102886.41;5000360;28;20033;-69
2022/04/28 02:50:52;;;;;;;22.45;8.52;;;;;;;4.78;80.94;102882.97;4994777;28;20104;-70
2022/04/28 02:53:18;;;;;;;23.35;8.02;;;;;;;4.73;80.97;102881.94;4992914;28;20485;-70
2022/04/28 02:55:43;;;;;;;22.80;8.38;;;;;;;4.71;80.33;102884.44;4999476;28;20053;-69
2022/04/28 02:58:09;;;;;;;18.27;8.30;;;;;;;4.66;79.67;102880.00;4991899;28;20527;-69
2022/04/28 03:00:38;;;;;;;25.42;8.70;;;;;;;4.65;80.80;102876.53;4997086;28;20292;-69
2022/04/28 03:03:04;;;;;;;20.48;9.00;;;;;;;4.63;81.08;102875.66;4992730;28;20065;-69
2022/04/28 03:05:30;;;;;;;22.45;8.98;;;;;;;4.62;81.21;102879.03;4994401;28;20021;-69
2022/04/28 03:13:10;;;;;;;22.42;9.05;;;;;;;4.63;81.77;102885.03;4991729;28;20042;-69
2022/04/28 03:15:36;;;;;;;28.60;10.10;;;;;;;4.61;82.14;102882.41;4986517;28;20032;-70
2022/04/28 03:18:01;;;;;;;22.80;9.38;;;;;;;4.63;82.26;102880.78;4993428;28;20060;-69
2022/04/28 03:20:27;;;;;;;23.25;8.60;;;;;;;4.64;81.82;102889.38;4995082;28;20025;-69
2022/04/28 03:22:52;;;;;;;26.48;9.00;;;;;;;4.61;81.18;102878.97;4991980;28;20031;-69
2022/04/28 03:25:17;;;;;;;23.48;9.05;;;;;;;4.62;81.98;102883.28;4985930;28;20036;-69
2022/04/28 03:27:43;;;;;;;25.02;9.68;;;;;;;4.60;81.50;102888.38;4994135;28;20037;-70
2022/04/28 03:30:09;;;;;;;25.25;8.48;;;;;;;4.58;81.51;102887.44;4998073;28;20026;-70
2022/04/28 03:32:34;;;;;;;24.15;9.27;;;;;;;4.55;81.70;102882.22;4992108;28;20105;-69
2022/04/28 03:35:00;;;;;;;23.98;9.02;;;;;;;4.56;81.74;102883.97;4988886;28;20125;-69
2022/04/28 03:37:25;;;;;;;24.35;9.48;;;;;;;4.55;81.11;102887.34;4993499;28;20042;-69
2022/04/28 03:39:51;;;;;;;22.50;9.35;;;;;;;4.56;82.14;102886.53;4984347;28;20014;-69
2022/04/28 03:42:17;;;;;;;24.75;9.50;;;;;;;4.56;81.86;102889.09;4995946;28;20053;-70
2022/04/28 03:44:42;;;;;;;27.58;9.50;;;;;;;4.54;82.26;102885.59;4978976;28;20026;-69
2022/04/28 03:47:08;;;;;;;25.48;9.55;;;;;;;4.52;82.33;102891.50;4990627;28;20088;-69
2022/04/28 03:49:33;;;;;;;26.13;8.60;;;;;;;4.52;82.70;102888.94;5004559;28;20145;-70
2022/04/28 03:51:58;;;;;;;29.25;9.45;;;;;;;4.47;82.31;102893.03;4990593;28;20308;-69
2022/04/28 03:54:24;;;;;;;20.60;9.00;;;;;;;4.48;82.34;102884.53;4988885;28;20105;-69
2022/04/28 03:56:49;;;;;;;26.38;10.02;;;;;;;4.47;82.60;102890.47;4984909;28;20301;-70
2022/04/28 03:59:14;;;;;;;24.60;9.25;;;;;;;4.48;82.40;102892.22;5010816;28;20030;-69
2022/04/28 04:01:40;;;;;;;25.42;9.68;;;;;;;4.49;83.10;102893.97;4991401;28;20124;-69
2022/04/28 04:04:05;;;;;;;19.87;8.87;;;;;;;4.49;82.64;102894.84;4996779;28;20113;-69
2022/04/28 04:06:31;;;;;;;27.70;9.40;;;;;;;4.47;83.04;102895.59;5007177;28;20662;-70
2022/04/28 04:08:56;;;;;;;29.33;9.80;;;;;;;4.49;83.00;102902.56;5003443;28;20091;-70
2022/04/28 04:11:22;;;;;;;26.40;9.43;;;;;;;4.46;82.43;102906.69;4999315;28;20037;-70
2022/04/28 04:13:47;;;;;;;24.67;9.30;;;;;;;4.45;82.39;102905.81;5012018;28;20026;-69
2022/04/28 04:16:13;;;;;;;24.83;9.32;;;;;;;4.44;83.01;102903.19;5000014;28;20062;-69
2022/04/28 04:18:39;;;;;;;25.13;9.95;;;;;;;4.43;83.07;102899.78;5004193;28;20113;-69
2022/04/28 04:21:04;;;;;;;26.27;9.52;;;;;;;4.43;83.21;102892.06;4998623;28;20041;-69
2022/04/28 04:23:31;;;;;;;27.75;10.70;;;;;;;4.47;83.12;102906.75;5004965;28;20030;-70
2022/04/28 04:25:57;;;;;;;29.92;9.77;;;;;;;4.45;82.58;102899.81;4995422;28;20370;-69
2022/04/28 04:28:22;;;;;;;25.33;9.48;;;;;;;4.45;82.68;102907.50;4992221;28;20430;-70
2022/04/28 04:33:31;;;;;;;25.50;9.88;;;;;;;4.41;81.71;102905.66;4982761;28;20049;-69
2022/04/28 04:35:57;;;;;;;23.50;8.73;;;;;;;4.35;81.26;102907.22;4994358;28;20034;-69
2022/04/28 04:38:22;;;;;;;20.58;8.82;;;;;;;4.34;81.44;102904.59;4995905;28;20400;-69
2022/04/28 04:40:47;;;;;;;24.27;9.98;;;;;;;4.31;81.60;102907.91;4999415;28;20109;-69
2022/04/28 04:43:15;;;;;;;25.20;9.30;;;;;;;4.27;82.08;102902.63;5007541;28;20040;-69
2022/04/28 04:45:44;;;;;;;22.92;8.50;;;;;;;4.31;82.01;102910.47;4993975;28;20284;-70
2022/04/28 04:48:10;;;;;;;23.60;9.35;;;;;;;4.30;82.57;102913.84;4996235;28;20484;-69
2022/04/28 04:50:36;;;;;;;24.73;8.88;;;;;;;4.30;82.68;102912.97;4998009;28;20512;-70
2022/04/28 04:53:01;;;;;;;23.55;9.48;;;;;;;4.33;82.98;102926.81;5012818;28;20068;-70
2022/04/28 04:55:26;;;;;;;23.17;9.32;;;;;;;4.37;83.11;102927.78;4995194;28;20105;-70
2022/04/28 04:57:52;;;;;;;24.95;10.05;;;;;;;4.44;83.76;102932.31;4993970;28;20036;-70
2022/04/28 05:00:17;;;;;;;28.07;9.73;;;;;;;4.50;83.70;102937.69;5003425;28;20027;-70
2022/04/28 05:02:43;;;;;;;24.02;9.63;;;;;;;4.57;83.13;102938.78;4998817;28;20635;-70
2022/04/28 05:05:08;;;;;;;24.73;9.87;;;;;;;4.61;83.30;102935.47;4988671;28;20093;-69
2022/04/28 05:07:34;;;;;;;26.40;9.85;;;;;;;4.68;83.54;102933.19;5005236;28;20324;-69
2022/04/28 05:09:59;;;;;;;26.48;9.55;;;;;;;4.76;83.24;102941.13;4996131;28;20053;-70
2022/04/28 05:12:25;;;;;;;23.98;9.88;;;;;;;4.81;83.27;102936.16;4996549;28;20036;-69
2022/04/28 05:14:50;;;;;;;28.30;9.77;;;;;;;4.85;83.54;102941.44;5002933;28;20109;-69
2022/04/28 05:17:16;;;;;;;26.85;10.00;;;;;;;4.91;83.86;102940.78;4992521;28;20031;-70
2022/04/28 05:19:42;;;;;;;31.83;10.27;;;;;;;4.95;83.07;102938.34;4997987;28;20511;-70
2022/04/28 05:22:07;;;;;;;26.20;10.50;;;;;;;5.01;83.21;102940.25;5007975;28;20030;-70
2022/04/28 05:24:33;;;;;;;27.38;10.57;;;;;;;5.08;82.82;102945.63;4998855;28;20133;-70
2022/04/28 05:26:58;;;;;;;27.92;10.30;;;;;;;5.14;83.16;102950.97;4992350;28;20030;-70
2022/04/28 05:29:23;;;;;;;30.73;10.13;;;;;;;5.20;82.71;102950.28;4996749;28;20021;-70
2022/04/28 05:31:49;;;;;;;27.00;10.40;;;;;;;5.30;82.61;102959.19;5005621;28;20582;-70
2022/04/28 05:34:14;;;;;;;30.58;11.23;;;;;;;5.38;83.34;102957.75;5000760;28;20289;-70
2022/04/28 05:36:40;;;;;;;26.27;10.03;;;;;;;5.44;82.05;102963.06;4986256;28;20018;-70
2022/04/28 05:39:05;;;;;;;33.80;10.75;;;;;;;5.52;83.47;102965.06;4991122;28;20289;-70
2022/04/28 05:41:33;;;;;;;30.98;10.63;;;;;;;5.57;81.83;102960.94;4987573;28;20034;-69
2022/04/28 05:46:43;;;;;;;26.52;10.93;;;;;;;5.78;81.33;102972.69;4993699;28;20045;-70
2022/04/28 05:49:08;;;;;;;28.25;10.93;;;;;;;5.87;82.69;102975.53;4998336;28;20026;-70
2022/04/28 05:51:34;;;;;;;30.27;10.60;;;;;;;5.97;81.98;102980.16;4990040;28;20080;-70
2022/04/28 05:54:00;;;;;;;30.13;11.32;;;;;;;6.08;81.63;102980.47;4997649;28;20385;-70
2022/04/28 05:56:25;;;;;;;31.15;11.57;;;;;;;6.14;80.32;102981.50;4985159;28;20065;-70
2022/04/28 05:58:51;;;;;;;30.88;11.27;;;;;;;6.26;81.55;102986.16;4988770;28;20057;-70
2022/04/28 06:01:16;;;;;;;31.48;11.00;;;;;;;6.38;80.96;102993.34;4985054;28;20029;-70
2022/04/28 06:03:41;;;;;;;31.73;10.50;;;;;;;6.51;80.37;102987.72;5007360;28;20022;-70
2022/04/28 06:06:07;;;;;;;31.40;10.90;;;;;;;6.66;80.04;102991.59;4993504;28;20033;-70
2022/04/28 06:08:33;;;;;;;34.22;10.82;;;;;;;6.85;79.14;102997.22;5001945;28;20036;-70
2022/04/28 06:10:58;;;;;;;30.58;10.68;;;;;;;6.94;78.69;102997.47;4988668;28;20308;-70
2022/04/28 06:13:24;;;;;;;34.22;11.10;;;;;;;7.10;80.30;102992.72;4991051;28;20396;-70
2022/04/28 06:15:50;;;;;;;28.77;10.82;;;;;;;7.36;76.92;102997.66;4991233;28;20574;-70
2022/04/28 06:18:15;;;;;;;30.25;10.93;;;;;;;7.59;76.19;103004.22;5005850;28;20093;-70
2022/04/28 06:20:40;;;;;;;32.05;10.85;;;;;;;7.69;75.33;103016.50;5000949;28;20033;-70
2022/04/28 06:23:06;;;;;;;30.17;11.35;;;;;;;7.72;75.10;103014.00;4990449;28;20496;-70
2022/04/28 06:25:32;;;;;;;30.73;10.57;;;;;;;7.78;74.00;103014.13;4989766;28;20059;-70
2022/04/28 06:27:57;;;;;;;30.52;10.18;;;;;;;7.83;73.48;103017.72;4989914;28;20081;-71
2022/04/28 06:30:23;;;;;;;30.60;10.45;;;;;;;7.93;73.68;103024.81;4993900;28;20109;-71
2022/04/28 06:32:49;;;;;;;29.95;10.57;;;;;;;8.04;76.03;103013.84;4996848;28;20026;-71
2022/04/28 06:35:15;;;;;;;29.40;10.48;;;;;;;8.10;75.14;103011.41;4999588;28;20026;-70
2022/04/28 06:37:40;;;;;;;29.92;11.10;;;;;;;8.23;73.43;103018.56;4988825;28;20084;-70
2022/04/28 06:40:07;;;;;;;33.03;12.30;;;;;;;8.63;70.89;103021.13;4997315;28;20520;-71
2022/04/28 06:42:32;;;;;;;35.72;11.68;;;;;;;9.03;70.70;103024.44;5002965;28;20299;-71
2022/04/28 06:44:57;;;;;;;29.77;11.52;;;;;;;9.15;68.99;103021.19;5001669;28;20026;-71
2022/04/28 06:47:23;;;;;;;30.03;10.73;;;;;;;9.20;70.17;103017.00;5001311;28;20061;-71
2022/04/28 06:49:48;;;;;;;27.35;10.73;;;;;;;9.35;69.43;103018.09;5004671;28;20297;-71
2022/04/28 06:52:13;;;;;;;28.73;10.93;;;;;;;9.58;67.73;103012.41;4988977;28;20505;-71
2022/04/28 06:54:39;;;;;;;31.87;11.67;;;;;;;10.06;68.21;103010.53;5001562;28;20289;-71
2022/04/28 06:57:05;;;;;;;28.60;11.32;;;;;;;10.71;65.10;103018.25;4996051;28;20640;-71
2022/04/28 06:59:30;;;;;;;25.45;10.95;;;;;;;11.42;63.95;103025.81;4999779;28;20096;-70
2022/04/28 07:01:55;;;;;;;28.02;10.73;;;;;;;11.91;60.06;103023.59;5000467;28;20326;-71
2022/04/28 07:04:21;;;;;;;26.63;10.18;;;;;;;11.84;58.52;103025.28;4988039;28;20054;-71
2022/04/28 07:06:46;;;;;;;25.33;10.38;;;;;;;11.58;58.89;103034.59;4986386;28;20034;-71
2022/04/28 07:09:11;;;;;;;28.50;11.15;;;;;;;11.65;62.32;103044.19;4990525;28;20117;-71
2022/04/28 07:11:37;;;;;;;23.75;10.45;;;;;;;11.73;60.25;103037.31;4987383;28;20022;-71
2022/04/28 07:14:02;;;;;;;26.48;10.50;;;;;;;11.97;59.93;103039.22;4989687;28;20511;-71
2022/04/28 07:16:27;;;;;;;25.02;10.75;;;;;;;12.49;57.46;103035.13;4979342;28;20026;-71
2022/04/28 07:18:53;;;;;;;24.83;9.90;;;;;;;12.75;55.32;103037.81;4985780;28;20026;-71
2022/04/28 07:21:18;;;;;;;28.30;10.30;;;;;;;13.10;54.13;103051.75;4992935;28;20045;-72
2022/04/28 07:23:43;;;;;;;24.48;9.13;;;;;;;13.30;52.81;103047.50;5003486;28;20161;-72
2022/04/28 07:26:08;;;;;;;24.55;9.15;;;;;;;13.38;52.51;103048.34;4990122;28;20029;-72
2022/04/28 07:28:34;;;;;;;23.55;9.35;;;;;;;13.65;51.65;103042.22;4993812;28;20030;-72
2022/04/28 07:30:59;;;;;;;23.50;9.50;;;;;;;14.02;50.50;103053.47;4989353;28;20488;-72
2022/04/28 07:33:25;;;;;;;22.67;9.73;;;;;;;14.48;50.10;103053.34;4993323;28;20305;-72
2022/04/28 07:35:50;;;;;;;21.88;8.75;;;;;;;15.11;49.79;103049.50;4985300;28;20293;-72
2022/04/28 07:38:15;;;;;;;25.75;10.00;;;;;;;15.11;47.68;103051.22;4992878;28;20163;-70
2022/04/28 07:40:41;;;;;;;25.00;9.32;;;;;;;14.33;49.96;103063.81;4988103;28;20034;-72
2022/04/28 07:43:06;;;;;;;21.73;9.20;;;;;;;13.69;52.25;103063.97;5005196;28;20104;-72
2022/04/28 07:45:31;;;;;;;22.80;10.07;;;;;;;13.09;51.37;103063.06;4990809;28;20703;-72
2022/04/28 07:47:57;;;;;;;22.30;10.05;;;;;;;12.92;53.17;103059.53;4989231;28;20026;-72
2022/04/28 07:50:23;;;;;;;23.02;9.57;;;;;;;13.39;52.11;103060.50;4990058;28;20417;-72
2022/04/28 07:52:48;;;;;;;23.80;9.57;;;;;;;14.30;50.03;103059.47;4995048;28;20040;-72
2022/04/28 07:55:14;;;;;;;22.80;9.43;;;;;;;15.11;50.02;103057.31;4993231;28;20457;-72
2022/04/28 07:57:41;;;;;;;24.65;9.20;;;;;;;15.56;48.14;103068.34;4991617;28;20030;-73
2022/04/28 08:00:07;;;;;;;22.00;9.27;;;;;;;15.97;45.14;103071.41;4991493;28;20030;-73
2022/04/28 08:02:36;;;;;;;23.48;10.00;;;;;;;16.38;47.22;103068.31;4991367;28;20045;-73
2022/04/28 08:05:04;;;;;;;19.58;8.90;;;;;;;16.82;44.72;103065.16;4990805;28;20128;-73
2022/04/28 08:07:30;;;;;;;23.83;10.30;;;;;;;17.01;42.40;103073.59;4993289;28;20283;-72
2022/04/28 08:09:55;;;;;;;21.98;9.80;;;;;;;17.32;43.12;103071.41;4992898;28;20181;-73
2022/04/28 08:12:21;;;;;;;24.88;9.98;;;;;;;17.37;41.81;103069.56;4991886;28;20403;-72
2022/04/28 08:14:46;;;;;;;22.13;10.23;;;;;;;17.45;41.86;103077.31;4995412;28;20517;-70
2022/04/28 08:17:11;;;;;;;23.02;10.38;;;;;;;17.51;42.23;103080.69;4987892;28;21780;-70
2022/04/28 08:19:36;;;;;;;24.10;10.07;;;;;;;17.75;41.12;103088.16;4988796;28;20108;-70
2022/04/28 08:22:02;;;;;;;20.03;9.67;;;;;;;18.01;40.92;103090.31;4992335;28;20612;-70
2022/04/28 08:24:28;;;;;;;20.90;10.00;;;;;;;18.08;39.60;103091.91;4983342;28;20348;-70
2022/04/28 08:26:54;;;;;;;23.65;10.48;;;;;;;18.18;42.24;103090.00;4991127;28;20030;-70
2022/04/28 08:29:21;;;;;;;18.83;9.80;;;;;;;18.39;41.77;103089.56;4994496;28;20230;-70
2022/04/28 08:31:46;;;;;;;24.58;9.90;;;;;;;18.58;40.63;103091.84;4992892;28;20097;-70
2022/04/28 08:34:17;;;;;;;18.52;9.20;;;;;;;18.66;41.76;103092.53;5003993;28;20110;-70
2022/04/28 08:36:43;;;;;;;25.83;10.45;;;;;;;18.21;40.95;103092.56;4988530;28;20281;-70
2022/04/28 08:39:10;;;;;;;22.63;9.65;;;;;;;17.93;42.27;103094.84;5003885;28;20026;-70
2022/04/28 08:41:38;;;;;;;24.70;9.63;;;;;;;17.69;43.17;103088.25;4985170;28;20173;-71
2022/04/28 08:44:05;;;;;;;22.38;9.35;;;;;;;17.28;43.08;103091.53;4988623;28;20029;-70
2022/04/28 08:49:26;;;;;;;19.52;8.95;;;;;;;16.37;44.73;103099.78;5006583;28;20049;-70
2022/04/28 08:51:54;;;;;;;17.77;9.30;;;;;;;16.18;43.97;103097.34;4995265;28;20132;-70
2022/04/28 08:54:20;;;;;;;19.58;9.45;;;;;;;16.13;44.68;103098.28;4998952;28;20434;-73
2022/04/28 08:56:45;;;;;;;20.95;9.07;;;;;;;16.05;44.12;103097.50;4995679;28;20422;-73
2022/04/28 08:59:11;;;;;;;17.77;9.07;;;;;;;15.96;43.72;103100.22;4984853;28;20486;-73
2022/04/28 09:01:36;;;;;;;22.98;9.20;;;;;;;15.67;42.52;103098.75;5005344;28;20021;-73
2022/04/28 09:04:04;;;;;;;18.80;8.90;;;;;;;15.54;45.04;103102.34;5005391;28;20157;-73
2022/04/28 09:06:34;;;;;;;20.27;8.80;;;;;;;15.50;44.91;103094.47;5007553;28;20449;-70
2022/04/28 09:09:04;;;;;;;21.05;9.35;;;;;;;15.55;46.38;103098.84;5012360;28;20021;-70
2022/04/28 09:11:32;;;;;;;16.65;8.75;;;;;;;15.74;46.46;103096.94;5012392;28;20065;-70
2022/04/28 09:14:09;;;;;;;18.13;9.05;;;;;;;15.71;43.98;103095.19;5012003;28;20022;-70
2022/04/28 09:16:51;;;;;;;19.55;8.95;;;;;;;15.57;44.19;103093.59;5007969;28;20051;-70
2022/04/28 09:19:23;;;;;;;16.92;8.55;;;;;;;15.39;45.55;103092.84;5006308;28;20018;-70
2022/04/28 09:21:53;;;;;;;18.63;9.00;;;;;;;15.27;45.29;103090.31;4995865;28;20108;-69
2022/04/28 09:24:20;;;;;;;21.05;9.25;;;;;;;15.16;45.74;103086.03;5005187;28;20080;-70
2022/04/28 09:26:47;;;;;;;20.42;8.98;;;;;;;15.02;45.11;103086.13;5011952;28;20041;-70
2022/04/28 09:29:14;;;;;;;17.55;8.40;;;;;;;15.03;46.47;103080.88;5007592;28;20068;-69
2022/04/28 09:31:43;;;;;;;16.83;8.07;;;;;;;14.95;45.22;103080.06;5011051;28;20420;-70
2022/04/28 09:34:13;;;;;;;24.80;8.50;;;;;;;14.80;45.95;103084.53;5007189;28;20050;-69
2022/04/28 09:36:41;;;;;;;17.23;8.73;;;;;;;14.67;45.92;103088.91;4992394;28;20565;-70
2022/04/28 09:39:09;;;;;;;20.23;8.85;;;;;;;14.77;45.99;103077.56;5004780;28;20167;-70
2022/04/28 09:44:22;;;;;;;16.83;8.23;;;;;;;15.16;46.21;103079.06;5011675;28;20037;-70
2022/04/28 09:46:48;;;;;;;19.55;8.20;;;;;;;15.31;45.06;103075.47;5011638;28;20022;-70
2022/04/28 09:49:17;;;;;;;20.70;8.77;;;;;;;15.36;43.15;103079.78;4999283;28;20053;-72
2022/04/28 09:51:43;;;;;;;16.80;8.52;;;;;;;15.33;44.75;103079.81;4999042;28;20057;-71
2022/04/28 09:54:11;;;;;;;20.13;8.95;;;;;;;15.24;44.74;103082.50;5011131;28;20102;-69
2022/04/28 09:56:38;;;;;;;16.45;8.82;;;;;;;15.16;44.72;103086.91;5011279;28;20062;-71
2022/04/28 09:59:05;;;;;;;17.23;8.15;;;;;;;15.11;45.85;103086.06;5011079;28;20034;-71
2022/04/28 10:01:32;;;;;;;19.52;8.65;;;;;;;15.11;45.82;103077.34;5004869;28;20064;-72
2022/04/28 10:03:57;;;;;;;18.90;9.07;;;;;;;15.26;46.57;103074.66;4982783;28;20436;-71
2022/04/28 10:06:25;;;;;;;19.77;9.07;;;;;;;15.32;45.38;103067.63;4994099;28;20037;-71
2022/04/28 10:08:52;;;;;;;20.35;9.25;;;;;;;15.51;47.25;103065.72;4994454;28;20049;-71
2022/04/28 10:11:21;;;;;;;20.63;9.32;;;;;;;15.39;43.43;103065.81;5004004;28;20042;-71
2022/04/28 10:13:48;;;;;;;20.35;8.70;;;;;;;15.16;44.29;103068.59;4998608;28;20526;-71
2022/04/28 10:16:15;;;;;;;19.15;9.80;;;;;;;14.94;44.96;103059.19;5006817;28;20026;-71
2022/04/28 10:18:46;;;;;;;20.95;9.70;;;;;;;14.77;44.89;103055.81;5011187;28;20034;-71
2022/04/28 10:21:16;;;;;;;18.90;9.80;;;;;;;14.62;45.84;103054.13;5000825;28;20062;-71
2022/04/28 10:35:06;;;;;;;22.90;10.00;;;;;;;15.07;45.92;103052.16;4990283;28;20057;-71
2022/04/28 10:37:34;;;;;;;18.55;9.57;;;;;;;14.90;45.68;103055.72;5009102;28;20080;-71
2022/04/28 10:39:59;;;;;;;18.65;10.10;;;;;;;14.83;46.37;103051.41;5010799;28;20181;-71
2022/04/28 10:42:28;;;;;;;23.90;10.57;;;;;;;14.79;46.25;103048.84;5010156;28;20113;-71
2022/04/28 10:44:55;;;;;;;20.65;10.57;;;;;;;14.69;46.50;103049.75;5003625;28;20105;-71
2022/04/28 10:47:22;;;;;;;21.67;10.65;;;;;;;14.63;44.71;103045.44;5001296;28;20120;-71
2022/04/28 10:49:53;;;;;;;22.85;10.90;;;;;;;14.53;46.31;103049.81;5010574;28;20382;-71
2022/04/28 10:52:23;;;;;;;21.42;10.75;;;;;;;14.39;46.99;103041.22;5009840;28;20080;-71
2022/04/28 10:55:01;;;;;;;19.30;9.98;;;;;;;14.45;49.21;103028.16;5005200;28;20200;-71
2022/04/28 10:57:32;;;;;;;22.23;9.63;;;;;;;14.74;48.56;103037.56;5028938;28;20365;-71
2022/04/28 11:00:00;;;;;;;19.33;10.70;;;;;;;14.75;46.13;103031.44;5029847;28;20053;-71
2022/04/28 11:02:25;;;;;;;24.42;11.10;;;;;;;14.78;47.87;103034.06;5016320;28;20612;-71
2022/04/28 11:05:00;;;;;;;22.43;11.23;;;;;;;14.75;47.87;103034.06;5024781;28;20100;-75
2022/04/28 11:07:28;;;;;;;21.25;10.77;;;;;;;14.67;47.05;103030.66;5008489;28;20441;-75
2022/04/28 11:09:58;;;;;;;23.40;11.13;;;;;;;14.63;47.69;103033.25;5012484;28;20052;-70
2022/04/28 11:12:25;;;;;;;23.90;11.02;;;;;;;14.73;48.12;103028.00;5009447;28;20036;-71
2022/04/28 11:15:03;;;;;;;23.42;10.70;;;;;;;14.81;47.13;103021.81;5008969;28;20034;-71
2022/04/28 11:17:32;;;;;;;23.17;11.18;;;;;;;14.78;46.39;103027.09;5005925;28;20029;-70
2022/04/28 11:20:03;;;;;;;24.58;11.48;;;;;;;14.68;46.82;103021.91;5007083;28;20200;-70
2022/04/28 11:22:29;;;;;;;23.30;11.68;;;;;;;14.61;46.55;103027.16;5008886;28;20048;-70
2022/04/28 11:24:56;;;;;;;21.30;12.00;;;;;;;14.56;46.85;103028.94;5011927;28;20380;-71
2022/04/28 11:27:24;;;;;;;22.67;11.35;;;;;;;14.47;47.40;103021.16;5021194;28;20452;-70
2022/04/28 11:29:51;;;;;;;25.95;12.95;;;;;;;14.57;46.66;103019.38;5009729;28;20037;-70
2022/04/28 11:32:16;;;;;;;21.08;11.00;;;;;;;14.68;48.22;103016.69;5029176;28;20083;-71
2022/04/28 11:34:44;;;;;;;22.55;10.65;;;;;;;14.84;47.48;103026.16;5029312;28;20108;-71
2022/04/28 11:37:20;;;;;;;22.63;10.98;;;;;;;14.91;47.30;103020.91;5015938;28;20507;-71
2022/04/28 11:39:46;;;;;;;22.92;10.80;;;;;;;15.11;45.87;103022.50;5029489;28;20518;-71
2022/04/28 11:42:16;;;;;;;24.33;11.30;;;;;;;15.15;45.26;103022.44;5018334;28;20117;-71
2022/04/28 11:44:52;;;;;;;22.20;11.68;;;;;;;15.16;46.16;103018.97;5023959;28;20449;-70
2022/04/28 11:47:19;;;;;;;23.33;10.70;;;;;;;15.15;45.78;103024.22;4998216;28;20029;-71
2022/04/28 11:49:45;;;;;;;23.85;10.90;;;;;;;15.23;46.07;103017.16;5024388;28;20029;-68